sensor_id;sensor_type;location;lat;lon;timestamp;P1;durP1;ratioP1;P2;durP2;ratioP2
52718;SDS011;38616;42.140;24.760;2022-10-31T00:01:28;5.55;;;2.58;;
52718;SDS011;38616;42.140;24.760;2022-10-31T00:03:56;6.95;;;2.20;;
52718;SDS011;38616;42.140;24.760;2022-10-31T00:06:22;9.40;;;2.10;;
52718;SDS011;38616;42.140;24.760;2022-10-31T00:08:52;4.60;;;2.15;;
52718;SDS011;38616;42.140;24.760;2022-10-31T00:11:22;6.50;;;2.40;;
52718;SDS011;38616;42.140;24.760;2022-10-31T00:13:48;12.35;;;3.30;;
52718;SDS011;38616;42.140;24.760;2022-10-31T00:16:17;5.35;;;2.00;;
52718;SDS011;38616;42.140;24.760;2022-10-31T00:18:47;5.88;;;1.88;;
52718;SDS011;38616;42.140;24.760;2022-10-31T00:21:15;6.60;;;2.50;;
52718;SDS011;38616;42.140;24.760;2022-10-31T00:23:41;8.57;;;2.75;;
52718;SDS011;38616;42.140;24.760;2022-10-31T00:26:06;6.32;;;2.00;;
52718;SDS011;38616;42.140;24.760;2022-10-31T00:28:32;4.57;;;2.03;;
52718;SDS011;38616;42.140;24.760;2022-10-31T00:31:07;3.22;;;2.03;;
52718;SDS011;38616;42.140;24.760;2022-10-31T00:33:35;8.90;;;2.22;;
52718;SDS011;38616;42.140;24.760;2022-10-31T00:38:28;6.82;;;2.53;;
52718;SDS011;38616;42.140;24.760;2022-10-31T00:40:54;7.80;;;2.13;;
52718;SDS011;38616;42.140;24.760;2022-10-31T00:43:19;9.57;;;2.30;;
52718;SDS011;38616;42.140;24.760;2022-10-31T00:45:45;9.07;;;2.38;;
52718;SDS011;38616;42.140;24.760;2022-10-31T00:48:10;7.22;;;2.30;;
52718;SDS011;38616;42.140;24.760;2022-10-31T00:50:36;5.20;;;1.92;;
52718;SDS011;38616;42.140;24.760;2022-10-31T00:53:02;7.43;;;2.20;;
52718;SDS011;38616;42.140;24.760;2022-10-31T00:55:27;5.32;;;2.60;;
52718;SDS011;38616;42.140;24.760;2022-10-31T00:57:53;7.25;;;1.95;;
52718;SDS011;38616;42.140;24.760;2022-10-31T01:00:18;6.47;;;2.15;;
52718;SDS011;38616;42.140;24.760;2022-10-31T01:02:44;5.80;;;1.80;;
52718;SDS011;38616;42.140;24.760;2022-10-31T01:05:09;7.80;;;3.25;;
52718;SDS011;38616;42.140;24.760;2022-10-31T01:07:35;4.05;;;2.10;;
52718;SDS011;38616;42.140;24.760;2022-10-31T01:10:01;4.05;;;2.58;;
52718;SDS011;38616;42.140;24.760;2022-10-31T01:12:27;6.78;;;2.13;;
52718;SDS011;38616;42.140;24.760;2022-10-31T01:14:52;7.50;;;2.13;;
52718;SDS011;38616;42.140;24.760;2022-10-31T01:17:18;6.78;;;1.65;;
52718;SDS011;38616;42.140;24.760;2022-10-31T01:19:44;4.45;;;1.90;;
52718;SDS011;38616;42.140;24.760;2022-10-31T01:22:09;9.18;;;2.25;;
52718;SDS011;38616;42.140;24.760;2022-10-31T01:24:35;5.03;;;2.38;;
52718;SDS011;38616;42.140;24.760;2022-10-31T01:27:00;6.88;;;1.85;;
52718;SDS011;38616;42.140;24.760;2022-10-31T01:29:26;9.18;;;2.55;;
52718;SDS011;38616;42.140;24.760;2022-10-31T01:31:51;7.65;;;2.95;;
52718;SDS011;38616;42.140;24.760;2022-10-31T01:34:17;3.38;;;1.75;;
52718;SDS011;38616;42.140;24.760;2022-10-31T01:36:43;4.43;;;2.17;;
52718;SDS011;38616;42.140;24.760;2022-10-31T01:39:13;6.68;;;2.00;;
52718;SDS011;38616;42.140;24.760;2022-10-31T01:41:41;6.68;;;2.38;;
52718;SDS011;38616;42.140;24.760;2022-10-31T01:51:54;8.27;;;1.75;;
52718;SDS011;38616;42.140;24.760;2022-10-31T01:54:24;4.18;;;1.63;;
52718;SDS011;38616;42.140;24.760;2022-10-31T01:56:55;6.72;;;2.15;;
52718;SDS011;38616;42.140;24.760;2022-10-31T01:59:22;6.22;;;2.28;;
52718;SDS011;38616;42.140;24.760;2022-10-31T02:01:50;9.05;;;2.00;;
52718;SDS011;38616;42.140;24.760;2022-10-31T02:04:17;7.03;;;2.42;;
52718;SDS011;38616;42.140;24.760;2022-10-31T02:09:09;5.82;;;1.85;;
52718;SDS011;38616;42.140;24.760;2022-10-31T02:11:37;10.20;;;2.25;;
52718;SDS011;38616;42.140;24.760;2022-10-31T02:14:03;8.73;;;1.92;;
52718;SDS011;38616;42.140;24.760;2022-10-31T02:16:28;9.90;;;2.42;;
52718;SDS011;38616;42.140;24.760;2022-10-31T02:18:54;4.90;;;2.00;;
52718;SDS011;38616;42.140;24.760;2022-10-31T02:21:37;6.55;;;2.35;;
52718;SDS011;38616;42.140;24.760;2022-10-31T02:27:05;11.98;;;2.25;;
52718;SDS011;38616;42.140;24.760;2022-10-31T02:32:09;7.90;;;2.15;;
52718;SDS011;38616;42.140;24.760;2022-10-31T02:37:33;8.98;;;2.03;;
52718;SDS011;38616;42.140;24.760;2022-10-31T02:40:21;3.67;;;1.75;;
52718;SDS011;38616;42.140;24.760;2022-10-31T02:45:26;7.07;;;2.47;;
52718;SDS011;38616;42.140;24.760;2022-10-31T02:47:55;4.15;;;1.88;;
52718;SDS011;38616;42.140;24.760;2022-10-31T02:50:28;3.08;;;1.73;;
52718;SDS011;38616;42.140;24.760;2022-10-31T02:52:57;6.55;;;2.17;;
52718;SDS011;38616;42.140;24.760;2022-10-31T02:57:52;10.75;;;2.00;;
52718;SDS011;38616;42.140;24.760;2022-10-31T03:00:26;8.45;;;2.05;;
52718;SDS011;38616;42.140;24.760;2022-10-31T03:03:03;4.97;;;2.05;;
52718;SDS011;38616;42.140;24.760;2022-10-31T03:10:55;10.75;;;2.55;;
52718;SDS011;38616;42.140;24.760;2022-10-31T03:19:22;7.28;;;2.10;;
52718;SDS011;38616;42.140;24.760;2022-10-31T03:21:50;5.82;;;2.00;;
52718;SDS011;38616;42.140;24.760;2022-10-31T03:24:25;7.60;;;2.55;;
52718;SDS011;38616;42.140;24.760;2022-10-31T03:26:57;11.52;;;1.92;;
52718;SDS011;38616;42.140;24.760;2022-10-31T03:29:25;9.00;;;2.30;;
52718;SDS011;38616;42.140;24.760;2022-10-31T03:32:10;6.85;;;2.25;;
52718;SDS011;38616;42.140;24.760;2022-10-31T03:34:48;5.70;;;1.80;;
52718;SDS011;38616;42.140;24.760;2022-10-31T03:42:11;8.27;;;2.42;;
52718;SDS011;38616;42.140;24.760;2022-10-31T03:44:41;3.35;;;1.77;;
52718;SDS011;38616;42.140;24.760;2022-10-31T03:47:11;6.13;;;2.20;;
52718;SDS011;38616;42.140;24.760;2022-10-31T03:49:37;7.38;;;1.75;;
52718;SDS011;38616;42.140;24.760;2022-10-31T03:52:13;5.50;;;2.38;;
52718;SDS011;38616;42.140;24.760;2022-10-31T03:54:43;3.58;;;1.75;;
52718;SDS011;38616;42.140;24.760;2022-10-31T03:59:51;7.32;;;2.58;;
52718;SDS011;38616;42.140;24.760;2022-10-31T04:02:22;6.60;;;2.00;;
52718;SDS011;38616;42.140;24.760;2022-10-31T04:04:53;5.57;;;1.90;;
52718;SDS011;38616;42.140;24.760;2022-10-31T04:07:19;5.93;;;2.25;;
52718;SDS011;38616;42.140;24.760;2022-10-31T04:09:48;9.77;;;3.15;;
52718;SDS011;38616;42.140;24.760;2022-10-31T04:12:15;8.95;;;2.90;;
52718;SDS011;38616;42.140;24.760;2022-10-31T04:14:42;7.18;;;2.10;;
52718;SDS011;38616;42.140;24.760;2022-10-31T04:17:14;6.95;;;2.58;;
52718;SDS011;38616;42.140;24.760;2022-10-31T04:19:42;6.25;;;2.60;;
52718;SDS011;38616;42.140;24.760;2022-10-31T04:22:08;6.78;;;2.33;;
52718;SDS011;38616;42.140;24.760;2022-10-31T04:24:33;4.32;;;2.10;;
52718;SDS011;38616;42.140;24.760;2022-10-31T04:26:59;8.57;;;2.22;;
52718;SDS011;38616;42.140;24.760;2022-10-31T04:29:24;10.82;;;2.28;;
52718;SDS011;38616;42.140;24.760;2022-10-31T04:31:50;10.75;;;2.10;;
52718;SDS011;38616;42.140;24.760;2022-10-31T04:34:15;5.95;;;2.58;;
52718;SDS011;38616;42.140;24.760;2022-10-31T04:36:40;3.15;;;1.65;;
52718;SDS011;38616;42.140;24.760;2022-10-31T04:39:06;8.40;;;2.47;;
52718;SDS011;38616;42.140;24.760;2022-10-31T04:41:31;9.65;;;2.88;;
52718;SDS011;38616;42.140;24.760;2022-10-31T04:43:57;9.15;;;3.22;;
52718;SDS011;38616;42.140;24.760;2022-10-31T04:46:22;13.07;;;3.13;;
52718;SDS011;38616;42.140;24.760;2022-10-31T04:48:48;8.32;;;2.40;;
52718;SDS011;38616;42.140;24.760;2022-10-31T04:51:13;5.50;;;2.60;;
52718;SDS011;38616;42.140;24.760;2022-10-31T04:53:39;6.70;;;2.60;;
52718;SDS011;38616;42.140;24.760;2022-10-31T04:56:04;5.13;;;2.05;;
52718;SDS011;38616;42.140;24.760;2022-10-31T04:58:30;6.68;;;3.45;;
52718;SDS011;38616;42.140;24.760;2022-10-31T05:00:55;4.60;;;2.10;;
52718;SDS011;38616;42.140;24.760;2022-10-31T05:03:21;7.75;;;2.75;;
52718;SDS011;38616;42.140;24.760;2022-10-31T05:05:47;8.30;;;2.80;;
52718;SDS011;38616;42.140;24.760;2022-10-31T05:08:12;4.40;;;2.22;;
52718;SDS011;38616;42.140;24.760;2022-10-31T05:10:38;10.98;;;2.40;;
52718;SDS011;38616;42.140;24.760;2022-10-31T05:13:04;10.68;;;2.50;;
52718;SDS011;38616;42.140;24.760;2022-10-31T05:15:29;8.00;;;2.63;;
52718;SDS011;38616;42.140;24.760;2022-10-31T05:17:55;6.07;;;2.10;;
52718;SDS011;38616;42.140;24.760;2022-10-31T05:20:22;7.97;;;2.30;;
52718;SDS011;38616;42.140;24.760;2022-10-31T05:22:51;7.80;;;2.55;;
52718;SDS011;38616;42.140;24.760;2022-10-31T05:25:18;6.10;;;2.47;;
52718;SDS011;38616;42.140;24.760;2022-10-31T05:27:47;7.75;;;2.40;;
52718;SDS011;38616;42.140;24.760;2022-10-31T05:30:14;8.23;;;2.33;;
52718;SDS011;38616;42.140;24.760;2022-10-31T05:32:43;8.55;;;2.20;;
52718;SDS011;38616;42.140;24.760;2022-10-31T05:35:10;10.55;;;2.70;;
52718;SDS011;38616;42.140;24.760;2022-10-31T05:37:38;10.77;;;3.45;;
52718;SDS011;38616;42.140;24.760;2022-10-31T05:40:05;9.85;;;2.78;;
52718;SDS011;38616;42.140;24.760;2022-10-31T05:42:32;8.95;;;2.80;;
52718;SDS011;38616;42.140;24.760;2022-10-31T05:44:58;4.72;;;2.80;;
52718;SDS011;38616;42.140;24.760;2022-10-31T05:47:24;7.75;;;2.45;;
52718;SDS011;38616;42.140;24.760;2022-10-31T05:49:49;10.20;;;2.70;;
52718;SDS011;38616;42.140;24.760;2022-10-31T05:52:15;19.83;;;3.65;;
52718;SDS011;38616;42.140;24.760;2022-10-31T05:54:40;9.40;;;3.13;;
52718;SDS011;38616;42.140;24.760;2022-10-31T05:57:06;13.40;;;3.22;;
52718;SDS011;38616;42.140;24.760;2022-10-31T05:59:31;5.32;;;2.50;;
52718;SDS011;38616;42.140;24.760;2022-10-31T06:01:57;7.50;;;2.38;;
52718;SDS011;38616;42.140;24.760;2022-10-31T06:04:22;10.27;;;2.90;;
52718;SDS011;38616;42.140;24.760;2022-10-31T06:06:48;10.57;;;3.25;;
52718;SDS011;38616;42.140;24.760;2022-10-31T06:09:13;9.30;;;2.35;;
52718;SDS011;38616;42.140;24.760;2022-10-31T06:11:39;8.60;;;2.28;;
52718;SDS011;38616;42.140;24.760;2022-10-31T06:14:04;9.18;;;2.97;;
52718;SDS011;38616;42.140;24.760;2022-10-31T06:16:30;9.10;;;2.35;;
52718;SDS011;38616;42.140;24.760;2022-10-31T06:18:56;5.53;;;2.28;;
52718;SDS011;38616;42.140;24.760;2022-10-31T06:21:22;7.93;;;2.58;;
52718;SDS011;38616;42.140;24.760;2022-10-31T06:23:47;4.38;;;1.83;;
52718;SDS011;38616;42.140;24.760;2022-10-31T06:26:12;14.43;;;2.55;;
52718;SDS011;38616;42.140;24.760;2022-10-31T06:28:38;7.80;;;2.60;;
52718;SDS011;38616;42.140;24.760;2022-10-31T06:31:03;9.13;;;2.33;;
52718;SDS011;38616;42.140;24.760;2022-10-31T06:33:29;9.55;;;3.78;;
52718;SDS011;38616;42.140;24.760;2022-10-31T06:35:54;8.20;;;2.55;;
52718;SDS011;38616;42.140;24.760;2022-10-31T06:38:20;5.85;;;2.47;;
52718;SDS011;38616;42.140;24.760;2022-10-31T06:40:45;8.88;;;2.58;;
52718;SDS011;38616;42.140;24.760;2022-10-31T06:43:11;18.00;;;2.53;;
52718;SDS011;38616;42.140;24.760;2022-10-31T06:45:36;7.22;;;2.50;;
52718;SDS011;38616;42.140;24.760;2022-10-31T06:48:02;7.45;;;3.00;;
52718;SDS011;38616;42.140;24.760;2022-10-31T06:50:28;11.63;;;3.20;;
52718;SDS011;38616;42.140;24.760;2022-10-31T06:52:55;6.80;;;2.30;;
52718;SDS011;38616;42.140;24.760;2022-10-31T06:55:21;11.00;;;2.45;;
52718;SDS011;38616;42.140;24.760;2022-10-31T06:57:54;12.30;;;2.67;;
52718;SDS011;38616;42.140;24.760;2022-10-31T07:00:22;16.27;;;3.50;;
52718;SDS011;38616;42.140;24.760;2022-10-31T07:03:01;6.88;;;2.55;;
52718;SDS011;38616;42.140;24.760;2022-10-31T07:05:28;8.48;;;2.88;;
52718;SDS011;38616;42.140;24.760;2022-10-31T07:07:55;19.20;;;2.60;;
52718;SDS011;38616;42.140;24.760;2022-10-31T07:10:25;7.88;;;3.17;;
52718;SDS011;38616;42.140;24.760;2022-10-31T07:12:56;5.95;;;2.25;;
52718;SDS011;38616;42.140;24.760;2022-10-31T07:15:23;7.25;;;2.17;;
52718;SDS011;38616;42.140;24.760;2022-10-31T07:17:49;18.58;;;4.55;;
52718;SDS011;38616;42.140;24.760;2022-10-31T07:20:14;7.72;;;2.55;;
52718;SDS011;38616;42.140;24.760;2022-10-31T07:22:39;10.48;;;2.55;;
52718;SDS011;38616;42.140;24.760;2022-10-31T07:25:05;8.77;;;2.33;;
52718;SDS011;38616;42.140;24.760;2022-10-31T07:27:41;13.48;;;2.33;;
52718;SDS011;38616;42.140;24.760;2022-10-31T07:30:07;7.10;;;2.00;;
52718;SDS011;38616;42.140;24.760;2022-10-31T07:35:08;13.23;;;2.47;;
52718;SDS011;38616;42.140;24.760;2022-10-31T07:37:35;9.98;;;2.38;;
52718;SDS011;38616;42.140;24.760;2022-10-31T07:40:01;7.57;;;2.40;;
52718;SDS011;38616;42.140;24.760;2022-10-31T07:42:37;12.52;;;2.53;;
52718;SDS011;38616;42.140;24.760;2022-10-31T07:45:07;8.32;;;2.22;;
52718;SDS011;38616;42.140;24.760;2022-10-31T07:47:51;13.20;;;2.28;;
52718;SDS011;38616;42.140;24.760;2022-10-31T07:50:18;7.47;;;2.67;;
52718;SDS011;38616;42.140;24.760;2022-10-31T07:52:48;6.82;;;2.17;;
52718;SDS011;38616;42.140;24.760;2022-10-31T07:55:26;8.18;;;3.22;;
52718;SDS011;38616;42.140;24.760;2022-10-31T07:57:59;8.20;;;2.53;;
52718;SDS011;38616;42.140;24.760;2022-10-31T08:00:46;5.97;;;2.35;;
52718;SDS011;38616;42.140;24.760;2022-10-31T08:03:13;5.87;;;2.23;;
52718;SDS011;38616;42.140;24.760;2022-10-31T08:05:40;6.03;;;2.28;;
52718;SDS011;38616;42.140;24.760;2022-10-31T08:08:06;7.10;;;2.78;;
52718;SDS011;38616;42.140;24.760;2022-10-31T08:10:32;11.05;;;2.60;;
52718;SDS011;38616;42.140;24.760;2022-10-31T08:12:59;6.95;;;1.92;;
52718;SDS011;38616;42.140;24.760;2022-10-31T08:15:26;12.23;;;2.35;;
52718;SDS011;38616;42.140;24.760;2022-10-31T08:17:52;10.68;;;2.40;;
52718;SDS011;38616;42.140;24.760;2022-10-31T08:20:18;9.50;;;3.13;;
52718;SDS011;38616;42.140;24.760;2022-10-31T08:22:51;8.88;;;2.95;;
52718;SDS011;38616;42.140;24.760;2022-10-31T08:25:21;8.13;;;2.90;;
52718;SDS011;38616;42.140;24.760;2022-10-31T08:27:50;13.18;;;2.58;;
52718;SDS011;38616;42.140;24.760;2022-10-31T08:30:19;13.68;;;3.38;;
52718;SDS011;38616;42.140;24.760;2022-10-31T08:32:46;8.20;;;2.28;;
52718;SDS011;38616;42.140;24.760;2022-10-31T08:35:12;4.60;;;2.65;;
52718;SDS011;38616;42.140;24.760;2022-10-31T08:37:38;5.53;;;2.35;;
52718;SDS011;38616;42.140;24.760;2022-10-31T08:40:04;9.20;;;2.60;;
52718;SDS011;38616;42.140;24.760;2022-10-31T08:42:30;9.77;;;3.17;;
52718;SDS011;38616;42.140;24.760;2022-10-31T08:44:55;5.30;;;2.40;;
52718;SDS011;38616;42.140;24.760;2022-10-31T08:47:21;10.73;;;2.17;;
52718;SDS011;38616;42.140;24.760;2022-10-31T08:49:46;9.63;;;2.45;;
52718;SDS011;38616;42.140;24.760;2022-10-31T08:52:11;11.77;;;3.22;;
52718;SDS011;38616;42.140;24.760;2022-10-31T08:54:37;9.88;;;2.60;;
52718;SDS011;38616;42.140;24.760;2022-10-31T08:57:02;10.55;;;3.67;;
52718;SDS011;38616;42.140;24.760;2022-10-31T08:59:28;11.18;;;3.17;;
52718;SDS011;38616;42.140;24.760;2022-10-31T09:01:53;11.40;;;2.80;;
52718;SDS011;38616;42.140;24.760;2022-10-31T09:04:18;11.48;;;3.50;;
52718;SDS011;38616;42.140;24.760;2022-10-31T09:06:44;14.55;;;3.35;;
52718;SDS011;38616;42.140;24.760;2022-10-31T09:09:09;6.00;;;2.50;;
52718;SDS011;38616;42.140;24.760;2022-10-31T09:11:34;14.80;;;3.55;;
52718;SDS011;38616;42.140;24.760;2022-10-31T09:14:00;12.23;;;3.63;;
52718;SDS011;38616;42.140;24.760;2022-10-31T09:16:25;6.35;;;2.15;;
52718;SDS011;38616;42.140;24.760;2022-10-31T09:19:09;6.75;;;2.35;;
52718;SDS011;38616;42.140;24.760;2022-10-31T09:21:34;8.30;;;2.50;;
52718;SDS011;38616;42.140;24.760;2022-10-31T09:24:00;10.23;;;2.25;;
52718;SDS011;38616;42.140;24.760;2022-10-31T09:26:25;5.85;;;2.28;;
52718;SDS011;38616;42.140;24.760;2022-10-31T09:28:51;9.82;;;2.05;;
52718;SDS011;38616;42.140;24.760;2022-10-31T09:31:16;6.82;;;2.20;;
52718;SDS011;38616;42.140;24.760;2022-10-31T09:33:41;6.63;;;2.15;;
52718;SDS011;38616;42.140;24.760;2022-10-31T09:36:07;4.07;;;2.10;;
52718;SDS011;38616;42.140;24.760;2022-10-31T09:38:32;17.48;;;3.50;;
52718;SDS011;38616;42.140;24.760;2022-10-31T09:41:04;9.60;;;2.58;;
52718;SDS011;38616;42.140;24.760;2022-10-31T09:57:10;4.70;;;2.30;;
52718;SDS011;38616;42.140;24.760;2022-10-31T09:59:39;10.02;;;2.28;;
52718;SDS011;38616;42.140;24.760;2022-10-31T10:02:52;5.85;;;2.60;;
52718;SDS011;38616;42.140;24.760;2022-10-31T10:05:17;7.03;;;2.88;;
52718;SDS011;38616;42.140;24.760;2022-10-31T10:08:20;7.35;;;1.95;;
52718;SDS011;38616;42.140;24.760;2022-10-31T10:10:54;5.25;;;1.95;;
52718;SDS011;38616;42.140;24.760;2022-10-31T10:13:32;7.85;;;2.72;;
52718;SDS011;38616;42.140;24.760;2022-10-31T10:19:02;10.07;;;2.35;;
52718;SDS011;38616;42.140;24.760;2022-10-31T10:30:04;7.50;;;1.85;;
52718;SDS011;38616;42.140;24.760;2022-10-31T10:32:41;5.43;;;2.40;;
52718;SDS011;38616;42.140;24.760;2022-10-31T10:35:26;7.90;;;2.08;;
52718;SDS011;38616;42.140;24.760;2022-10-31T10:38:00;6.10;;;2.17;;
52718;SDS011;38616;42.140;24.760;2022-10-31T10:40:33;6.90;;;2.20;;
52718;SDS011;38616;42.140;24.760;2022-10-31T10:43:15;7.13;;;1.85;;
52718;SDS011;38616;42.140;24.760;2022-10-31T10:46:00;14.80;;;2.50;;
52718;SDS011;38616;42.140;24.760;2022-10-31T10:48:50;8.68;;;2.47;;
52718;SDS011;38616;42.140;24.760;2022-10-31T10:51:21;4.97;;;1.88;;
52718;SDS011;38616;42.140;24.760;2022-10-31T10:59:30;4.85;;;1.90;;
52718;SDS011;38616;42.140;24.760;2022-10-31T11:01:56;4.85;;;1.75;;
52718;SDS011;38616;42.140;24.760;2022-10-31T11:04:25;6.13;;;2.00;;
52718;SDS011;38616;42.140;24.760;2022-10-31T11:06:57;7.93;;;1.98;;
52718;SDS011;38616;42.140;24.760;2022-10-31T11:09:23;4.93;;;1.65;;
52718;SDS011;38616;42.140;24.760;2022-10-31T11:11:49;6.32;;;1.90;;
52718;SDS011;38616;42.140;24.760;2022-10-31T11:14:15;7.75;;;2.03;;
52718;SDS011;38616;42.140;24.760;2022-10-31T11:16:42;8.75;;;2.25;;
52718;SDS011;38616;42.140;24.760;2022-10-31T11:19:16;5.20;;;3.05;;
52718;SDS011;38616;42.140;24.760;2022-10-31T11:21:44;4.05;;;1.58;;
52718;SDS011;38616;42.140;24.760;2022-10-31T11:26:36;5.47;;;1.40;;
52718;SDS011;38616;42.140;24.760;2022-10-31T11:29:04;4.28;;;1.70;;
52718;SDS011;38616;42.140;24.760;2022-10-31T11:31:34;5.38;;;1.40;;
52718;SDS011;38616;42.140;24.760;2022-10-31T11:34:01;3.67;;;1.55;;
52718;SDS011;38616;42.140;24.760;2022-10-31T11:36:30;4.03;;;1.42;;
52718;SDS011;38616;42.140;24.760;2022-10-31T11:39:00;3.88;;;1.80;;
52718;SDS011;38616;42.140;24.760;2022-10-31T11:41:29;4.43;;;2.20;;
52718;SDS011;38616;42.140;24.760;2022-10-31T11:44:04;8.02;;;1.92;;
52718;SDS011;38616;42.140;24.760;2022-10-31T11:46:49;12.18;;;1.98;;
52718;SDS011;38616;42.140;24.760;2022-10-31T11:49:28;3.63;;;1.60;;
52718;SDS011;38616;42.140;24.760;2022-10-31T11:51:57;9.98;;;2.15;;
52718;SDS011;38616;42.140;24.760;2022-10-31T11:54:34;8.75;;;1.85;;
52718;SDS011;38616;42.140;24.760;2022-10-31T11:57:20;4.90;;;1.75;;
52718;SDS011;38616;42.140;24.760;2022-10-31T11:59:58;6.20;;;1.92;;
52718;SDS011;38616;42.140;24.760;2022-10-31T12:02:25;4.85;;;1.75;;
52718;SDS011;38616;42.140;24.760;2022-10-31T12:05:17;5.43;;;1.75;;
52718;SDS011;38616;42.140;24.760;2022-10-31T12:07:43;7.53;;;1.80;;
52718;SDS011;38616;42.140;24.760;2022-10-31T12:10:12;5.13;;;1.65;;
52718;SDS011;38616;42.140;24.760;2022-10-31T12:13:42;5.43;;;1.95;;
52718;SDS011;38616;42.140;24.760;2022-10-31T12:15:53;9.82;;;2.20;;
52718;SDS011;38616;42.140;24.760;2022-10-31T12:18:36;4.60;;;2.03;;
52718;SDS011;38616;42.140;24.760;2022-10-31T12:21:19;6.40;;;2.15;;
52718;SDS011;38616;42.140;24.760;2022-10-31T12:29:22;6.07;;;1.90;;
52718;SDS011;38616;42.140;24.760;2022-10-31T13:02:44;15.73;;;1.92;;
52718;SDS011;38616;42.140;24.760;2022-10-31T13:05:17;6.53;;;1.80;;
52718;SDS011;38616;42.140;24.760;2022-10-31T13:07:57;5.38;;;2.20;;
52718;SDS011;38616;42.140;24.760;2022-10-31T13:10:29;8.57;;;1.65;;
52718;SDS011;38616;42.140;24.760;2022-10-31T13:13:05;4.63;;;1.50;;
52718;SDS011;38616;42.140;24.760;2022-10-31T13:15:40;5.50;;;1.33;;
52718;SDS011;38616;42.140;24.760;2022-10-31T13:20:48;5.43;;;1.33;;
52718;SDS011;38616;42.140;24.760;2022-10-31T13:23:34;4.47;;;1.95;;
52718;SDS011;38616;42.140;24.760;2022-10-31T13:26:02;3.88;;;1.63;;
52718;SDS011;38616;42.140;24.760;2022-10-31T13:28:45;7.32;;;2.08;;
52718;SDS011;38616;42.140;24.760;2022-10-31T13:31:13;5.83;;;2.27;;
52718;SDS011;38616;42.140;24.760;2022-10-31T13:33:41;6.80;;;2.13;;
52718;SDS011;38616;42.140;24.760;2022-10-31T13:36:29;7.35;;;1.77;;
52718;SDS011;38616;42.140;24.760;2022-10-31T13:44:38;5.70;;;1.65;;
52718;SDS011;38616;42.140;24.760;2022-10-31T13:47:04;3.53;;;1.10;;
52718;SDS011;38616;42.140;24.760;2022-10-31T13:49:46;5.47;;;1.55;;
52718;SDS011;38616;42.140;24.760;2022-10-31T13:52:13;5.47;;;1.98;;
52718;SDS011;38616;42.140;24.760;2022-10-31T13:54:45;7.57;;;1.60;;
52718;SDS011;38616;42.140;24.760;2022-10-31T13:57:14;4.22;;;2.00;;
52718;SDS011;38616;42.140;24.760;2022-10-31T13:59:45;7.38;;;1.92;;
52718;SDS011;38616;42.140;24.760;2022-10-31T14:02:15;8.63;;;1.70;;
52718;SDS011;38616;42.140;24.760;2022-10-31T14:04:50;6.78;;;1.70;;
52718;SDS011;38616;42.140;24.760;2022-10-31T14:07:20;5.53;;;2.03;;
52718;SDS011;38616;42.140;24.760;2022-10-31T14:12:23;5.03;;;1.70;;
52718;SDS011;38616;42.140;24.760;2022-10-31T14:14:57;3.35;;;1.92;;
52718;SDS011;38616;42.140;24.760;2022-10-31T14:17:26;6.63;;;1.80;;
52718;SDS011;38616;42.140;24.760;2022-10-31T14:25:02;5.68;;;2.30;;
52718;SDS011;38616;42.140;24.760;2022-10-31T14:27:47;9.10;;;2.42;;
52718;SDS011;38616;42.140;24.760;2022-10-31T14:30:17;7.15;;;1.85;;
52718;SDS011;38616;42.140;24.760;2022-10-31T14:32:49;7.00;;;1.95;;
52718;SDS011;38616;42.140;24.760;2022-10-31T14:35:20;12.35;;;2.30;;
52718;SDS011;38616;42.140;24.760;2022-10-31T14:43:27;7.38;;;2.20;;
52718;SDS011;38616;42.140;24.760;2022-10-31T14:46:03;10.32;;;2.30;;
52718;SDS011;38616;42.140;24.760;2022-10-31T14:51:13;6.47;;;2.45;;
52718;SDS011;38616;42.140;24.760;2022-10-31T14:53:50;7.50;;;2.20;;
52718;SDS011;38616;42.140;24.760;2022-10-31T14:56:36;7.57;;;2.42;;
52718;SDS011;38616;42.140;24.760;2022-10-31T14:59:08;5.82;;;2.47;;
52718;SDS011;38616;42.140;24.760;2022-10-31T15:01:38;8.98;;;3.35;;
52718;SDS011;38616;42.140;24.760;2022-10-31T15:04:23;17.13;;;4.93;;
52718;SDS011;38616;42.140;24.760;2022-10-31T15:07:36;14.80;;;4.55;;
52718;SDS011;38616;42.140;24.760;2022-10-31T15:09:56;16.83;;;3.67;;
52718;SDS011;38616;42.140;24.760;2022-10-31T15:14:50;11.90;;;3.83;;
52718;SDS011;38616;42.140;24.760;2022-10-31T15:17:16;15.68;;;3.10;;
52718;SDS011;38616;42.140;24.760;2022-10-31T15:19:42;14.40;;;3.72;;
52718;SDS011;38616;42.140;24.760;2022-10-31T15:22:18;15.93;;;4.15;;
52718;SDS011;38616;42.140;24.760;2022-10-31T15:24:47;11.77;;;3.03;;
52718;SDS011;38616;42.140;24.760;2022-10-31T15:27:15;13.93;;;3.88;;
52718;SDS011;38616;42.140;24.760;2022-10-31T15:29:52;11.02;;;3.85;;
52718;SDS011;38616;42.140;24.760;2022-10-31T15:32:23;19.25;;;4.53;;
52718;SDS011;38616;42.140;24.760;2022-10-31T15:34:53;13.43;;;2.88;;
52718;SDS011;38616;42.140;24.760;2022-10-31T15:37:21;15.98;;;4.00;;
52718;SDS011;38616;42.140;24.760;2022-10-31T15:39:49;21.40;;;4.40;;
52718;SDS011;38616;42.140;24.760;2022-10-31T15:42:22;15.77;;;3.83;;
52718;SDS011;38616;42.140;24.760;2022-10-31T15:44:58;29.15;;;6.65;;
52718;SDS011;38616;42.140;24.760;2022-10-31T15:47:28;22.30;;;4.95;;
52718;SDS011;38616;42.140;24.760;2022-10-31T15:49:56;18.23;;;4.82;;
52718;SDS011;38616;42.140;24.760;2022-10-31T15:52:40;28.15;;;4.85;;
52718;SDS011;38616;42.140;24.760;2022-10-31T15:55:15;18.30;;;4.28;;
52718;SDS011;38616;42.140;24.760;2022-10-31T15:58:14;15.90;;;4.28;;
52718;SDS011;38616;42.140;24.760;2022-10-31T16:00:37;30.00;;;4.60;;
52718;SDS011;38616;42.140;24.760;2022-10-31T16:03:08;17.27;;;4.47;;
52718;SDS011;38616;42.140;24.760;2022-10-31T16:05:48;18.80;;;4.78;;
52718;SDS011;38616;42.140;24.760;2022-10-31T16:10:50;29.42;;;4.63;;
52718;SDS011;38616;42.140;24.760;2022-10-31T16:13:16;17.20;;;4.63;;
52718;SDS011;38616;42.140;24.760;2022-10-31T16:15:59;17.02;;;4.90;;
52718;SDS011;38616;42.140;24.760;2022-10-31T16:18:26;32.42;;;5.63;;
52718;SDS011;38616;42.140;24.760;2022-10-31T16:20:55;31.45;;;5.15;;
52718;SDS011;38616;42.140;24.760;2022-10-31T16:23:21;22.27;;;4.57;;
52718;SDS011;38616;42.140;24.760;2022-10-31T16:25:49;29.05;;;5.43;;
52718;SDS011;38616;42.140;24.760;2022-10-31T16:28:20;19.48;;;5.78;;
52718;SDS011;38616;42.140;24.760;2022-10-31T16:30:48;20.77;;;5.78;;
52718;SDS011;38616;42.140;24.760;2022-10-31T16:33:31;29.73;;;8.02;;
52718;SDS011;38616;42.140;24.760;2022-10-31T16:36:01;33.88;;;6.07;;
52718;SDS011;38616;42.140;24.760;2022-10-31T16:38:52;25.48;;;5.70;;
52718;SDS011;38616;42.140;24.760;2022-10-31T16:41:21;17.20;;;4.03;;
52718;SDS011;38616;42.140;24.760;2022-10-31T16:43:46;29.70;;;8.05;;
52718;SDS011;38616;42.140;24.760;2022-10-31T16:46:12;30.25;;;5.72;;
52718;SDS011;38616;42.140;24.760;2022-10-31T16:48:43;23.60;;;6.45;;
52718;SDS011;38616;42.140;24.760;2022-10-31T16:51:08;24.00;;;7.03;;
52718;SDS011;38616;42.140;24.760;2022-10-31T16:53:33;18.75;;;5.60;;
52718;SDS011;38616;42.140;24.760;2022-10-31T16:56:01;25.08;;;6.95;;
52718;SDS011;38616;42.140;24.760;2022-10-31T16:58:29;33.83;;;5.40;;
52718;SDS011;38616;42.140;24.760;2022-10-31T17:01:04;34.45;;;9.60;;
52718;SDS011;38616;42.140;24.760;2022-10-31T17:03:30;29.13;;;8.57;;
52718;SDS011;38616;42.140;24.760;2022-10-31T17:05:56;29.70;;;8.50;;
52718;SDS011;38616;42.140;24.760;2022-10-31T17:08:22;40.08;;;8.77;;
52718;SDS011;38616;42.140;24.760;2022-10-31T17:10:50;28.70;;;9.17;;
52718;SDS011;38616;42.140;24.760;2022-10-31T17:13:18;27.70;;;9.35;;